< < Back
Terminal Aerodrome Forecast


Current Version              Previous Versions:   1  2  3  4  5  6  7  8  9  

Terminal Aerodrome Forecast

453
FTUS42 KJAX 062204 AAC
TAFJAX
TAF AMD
KJAX 062204Z 0622/0718 10007KT P6SM VCTS BKN050CB OVC250
      TEMPO 0623/0701 VRB15G25KT 3SM TSRA BR OVC035CB
     FM070100 18006KT P6SM VCSH SCT030 BKN090 OVC250
     FM070300 24004KT P6SM SCT150 SCT250=

Latest METAR

666
SAUS80 KWBC 070400 RRA
MTRJAX
METAR KJAX 070356Z 00000KT 10SM FEW045 BKN150 OVC250 23/22 A3012 RMK AO2
SLP199 T02330222 $


USA.gov is the U.S. government's official web portal to all federal, state and local government web resources and services.